Eastmont, South Carolina
Current Conditions -  °F | °C
As of 11:53 AM on Thursday 27 Nov 2014 (Local Time) from KCUB Reporting Station
Clear Clear  
Wind Chill: 54°   Ceiling: Unl
Heat Index: 54°   Visibility: 10mi
Dew Point: 28°   Wind: 12mph
Humidity: 37%   Direction: 280°W
Pressure: 30.14"   Gusts: 23mph
Location:  33.9488°N, 80.9462°W
Report Text: KCUB 271653Z AUTO 28010G20KT 10SM CLR 12/M02 A3014 RMK AO2 PK WND 29026/1557 SLP205 T01221022
Loading
Personal Weather Stations






























Interactive Weather Map New forecast layout! Learn more

10-Day Weather Forecast

Advertisements
Track Severe Weather on mobile